createdAt,value
2019-03-20T00:00:58.653Z,94.70
2019-03-20T00:03:26.091Z,95.90
2019-03-20T00:05:53.718Z,95.90
2019-03-20T00:08:21.324Z,96.60
2019-03-20T00:10:48.835Z,97.60
2019-03-20T00:13:16.237Z,95.30
2019-03-20T00:15:43.638Z,93.30
2019-03-20T00:18:11.267Z,92.10
2019-03-20T00:20:38.656Z,94.30
2019-03-20T00:23:06.065Z,93.80
2019-03-20T00:25:33.519Z,93.60
2019-03-20T00:28:00.904Z,93.80
2019-03-20T00:30:28.291Z,95.80
2019-03-20T00:32:55.714Z,94.70
2019-03-20T00:35:23.115Z,93.40
2019-03-20T00:37:50.501Z,92.40
2019-03-20T00:40:18.591Z,91.10
2019-03-20T00:42:45.991Z,93.20
2019-03-20T00:45:13.400Z,93.20
2019-03-20T00:47:40.830Z,95.10
2019-03-20T00:50:12.700Z,96.70
2019-03-20T00:52:40.095Z,95.70
2019-03-20T00:55:07.967Z,99.40
2019-03-20T00:57:35.363Z,99.40
2019-03-20T01:00:03.926Z,99.90
2019-03-20T01:02:31.480Z,99.90
2019-03-20T01:04:59.004Z,99.80
2019-03-20T01:07:26.635Z,99.00
2019-03-20T01:09:54.079Z,99.90
2019-03-20T01:12:21.470Z,99.90
2019-03-20T01:14:48.864Z,99.90
2019-03-20T01:17:16.318Z,99.90
2019-03-20T01:19:43.711Z,99.90
2019-03-20T01:22:11.131Z,99.90
2019-03-20T01:24:38.583Z,99.00
2019-03-20T01:27:05.973Z,99.90
2019-03-20T01:29:33.622Z,99.90
2019-03-20T01:32:01.030Z,99.90
2019-03-20T01:34:28.419Z,99.40
2019-03-20T01:36:55.852Z,99.90
2019-03-20T01:39:23.279Z,99.50
2019-03-20T01:41:50.684Z,99.90
2019-03-20T01:44:18.106Z,99.90
2019-03-20T01:46:45.531Z,99.90
2019-03-20T01:49:12.923Z,99.90
2019-03-20T01:51:40.318Z,99.90
2019-03-20T01:54:07.782Z,99.90
2019-03-20T01:56:35.191Z,98.80
2019-03-20T01:59:02.590Z,99.80
2019-03-20T02:01:30.230Z,99.00
2019-03-20T02:03:57.619Z,97.50
2019-03-20T02:06:25.205Z,98.20
2019-03-20T02:08:52.963Z,97.50
2019-03-20T02:11:20.350Z,97.50
2019-03-20T02:13:47.750Z,98.20
2019-03-20T02:16:15.347Z,99.90
2019-03-20T02:18:42.739Z,99.90
2019-03-20T02:21:10.125Z,99.90
2019-03-20T02:23:37.795Z,99.90
2019-03-20T02:26:05.181Z,99.90
2019-03-20T02:28:32.574Z,99.90
2019-03-20T02:30:59.997Z,99.90
2019-03-20T02:33:27.396Z,99.90
2019-03-20T02:35:54.879Z,99.90
2019-03-20T02:38:22.307Z,99.90
2019-03-20T02:40:49.703Z,99.90
2019-03-20T02:43:17.101Z,99.90
2019-03-20T02:45:44.663Z,99.90
2019-03-20T02:48:12.063Z,99.90
2019-03-20T02:50:39.448Z,99.90
2019-03-20T02:53:07.284Z,99.90
2019-03-20T02:55:34.870Z,99.90
2019-03-20T02:58:02.288Z,99.90
2019-03-20T03:00:29.978Z,99.90
2019-03-20T03:02:57.360Z,99.90
2019-03-20T03:05:25.129Z,99.90
2019-03-20T03:07:53.174Z,99.90
2019-03-20T03:10:20.586Z,99.90
2019-03-20T03:12:47.974Z,99.90
2019-03-20T03:15:15.639Z,99.90
2019-03-20T03:17:43.127Z,99.90
2019-03-20T03:20:10.742Z,99.90
2019-03-20T03:22:38.257Z,99.90
2019-03-20T03:25:06.095Z,99.90
2019-03-20T03:27:33.492Z,99.90
2019-03-20T03:30:00.972Z,99.90
2019-03-20T03:32:28.382Z,99.90
2019-03-20T03:34:55.760Z,99.90
2019-03-20T03:37:23.189Z,99.90
2019-03-20T03:39:50.580Z,99.90
2019-03-20T03:42:17.874Z,99.90
2019-03-20T03:44:45.432Z,99.90
2019-03-20T03:47:12.822Z,99.90
2019-03-20T03:49:40.244Z,99.90
2019-03-20T03:52:08.641Z,99.90
2019-03-20T03:54:36.022Z,99.90
2019-03-20T03:57:03.427Z,99.90
2019-03-20T03:59:30.909Z,99.90
2019-03-20T04:01:58.291Z,99.90
2019-03-20T04:04:25.693Z,99.90
2019-03-20T04:06:53.148Z,99.90
2019-03-20T04:09:20.818Z,99.90
2019-03-20T04:11:48.205Z,99.90
2019-03-20T04:14:15.646Z,99.90
2019-03-20T04:16:43.046Z,99.90
2019-03-20T04:19:10.458Z,99.90
2019-03-20T04:21:38.077Z,99.90
2019-03-20T04:24:05.477Z,99.90
2019-03-20T04:26:32.888Z,99.90
2019-03-20T04:29:00.340Z,99.90
2019-03-20T04:31:27.733Z,99.90
2019-03-20T04:33:57.582Z,99.90
2019-03-20T04:36:24.587Z,99.90
2019-03-20T04:38:51.984Z,99.90
2019-03-20T04:41:19.379Z,99.90
2019-03-20T04:43:46.811Z,99.90
2019-03-20T04:46:14.208Z,99.90
2019-03-20T04:48:41.603Z,99.90
2019-03-20T04:51:09.259Z,99.90
2019-03-20T04:53:36.660Z,99.90
2019-03-20T04:56:04.055Z,99.90
2019-03-20T04:58:31.853Z,99.90
2019-03-20T05:00:59.259Z,99.90
2019-03-20T05:03:26.662Z,99.90
2019-03-20T05:05:54.115Z,99.90
2019-03-20T05:08:21.963Z,99.90
2019-03-20T05:10:49.342Z,99.90
2019-03-20T05:13:16.827Z,99.90
2019-03-20T05:15:44.238Z,99.90
2019-03-20T05:18:11.621Z,99.90
2019-03-20T05:20:39.046Z,99.90
2019-03-20T05:23:08.457Z,99.90
2019-03-20T05:25:35.649Z,99.90
2019-03-20T05:28:03.085Z,99.90
2019-03-20T05:30:30.508Z,99.90
2019-03-20T05:32:57.903Z,99.90
2019-03-20T05:35:25.389Z,99.90
2019-03-20T05:37:52.839Z,99.90
2019-03-20T05:40:20.220Z,99.90
2019-03-20T05:42:47.810Z,99.90
2019-03-20T05:45:15.300Z,99.90
2019-03-20T05:47:42.634Z,99.90
2019-03-20T05:50:11.276Z,99.90
2019-03-20T05:52:38.667Z,99.90
2019-03-20T05:55:06.369Z,99.90
2019-03-20T05:57:34.125Z,99.90
2019-03-20T06:00:01.525Z,99.90
2019-03-20T06:02:28.933Z,99.90
2019-03-20T06:04:56.710Z,99.90
2019-03-20T06:07:24.300Z,99.90
2019-03-20T06:09:51.799Z,99.90
2019-03-20T06:12:19.411Z,99.90
2019-03-20T06:14:46.815Z,99.90
2019-03-20T06:17:14.206Z,99.90
2019-03-20T06:19:41.671Z,99.90
2019-03-20T06:22:09.080Z,99.90
2019-03-20T06:24:36.471Z,99.90
2019-03-20T06:27:03.912Z,99.90
2019-03-20T06:29:31.315Z,99.90
2019-03-20T06:31:58.719Z,99.90
2019-03-20T06:34:26.355Z,99.90
2019-03-20T06:36:53.743Z,99.90
2019-03-20T06:39:21.149Z,99.90
2019-03-20T06:41:48.579Z,99.90
2019-03-20T06:44:15.984Z,99.90
2019-03-20T06:46:43.383Z,99.90
2019-03-20T06:49:10.935Z,99.90
2019-03-20T06:51:38.331Z,99.90
2019-03-20T06:54:05.723Z,99.90
2019-03-20T06:56:33.323Z,99.90
2019-03-20T06:59:54.819Z,99.90
2019-03-20T07:02:22.275Z,99.90
2019-03-20T07:05:30.491Z,99.90
2019-03-20T07:07:58.190Z,99.90
2019-03-20T07:11:04.187Z,99.90
2019-03-20T07:13:31.743Z,99.90
2019-03-20T07:15:59.134Z,99.90
2019-03-20T07:18:26.527Z,99.90
2019-03-20T07:20:53.963Z,99.90
2019-03-20T07:23:21.363Z,99.90
2019-03-20T07:25:48.755Z,99.90
2019-03-20T07:28:16.414Z,99.90
2019-03-20T07:30:43.822Z,99.90
2019-03-20T07:33:11.218Z,99.90
2019-03-20T07:35:38.643Z,99.80
2019-03-20T07:38:06.025Z,97.40
2019-03-20T07:40:33.418Z,96.70
2019-03-20T07:43:08.746Z,96.30
2019-03-20T07:45:30.159Z,96.10
2019-03-20T07:47:57.565Z,94.20
2019-03-20T07:50:24.999Z,90.30
2019-03-20T07:52:52.417Z,92.10
2019-03-20T07:55:19.823Z,89.80
2019-03-20T07:57:47.388Z,88.20
2019-03-20T08:00:14.872Z,87.30
2019-03-20T08:02:42.268Z,88.60
2019-03-20T08:05:10.323Z,88.00
2019-03-20T08:07:38.063Z,84.40
2019-03-20T08:10:08.555Z,83.80
2019-03-20T08:12:36.113Z,84.30
2019-03-20T08:15:04.866Z,85.40
2019-03-20T08:17:32.288Z,83.10
2019-03-20T08:20:00.575Z,83.60
2019-03-20T08:22:28.075Z,81.30
2019-03-20T08:24:55.846Z,79.80
2019-03-20T08:27:23.435Z,81.90
2019-03-20T08:29:50.819Z,78.90
2019-03-20T08:32:18.223Z,80.30
2019-03-20T08:34:45.873Z,79.10
2019-03-20T08:37:13.267Z,77.80
2019-03-20T08:39:41.775Z,73.80
2019-03-20T08:44:56.529Z,75.80
2019-03-20T08:47:27.162Z,75.80
2019-03-20T08:49:54.566Z,71.30
2019-03-20T08:52:21.950Z,99.90
2019-03-20T08:54:49.519Z,76.20
2019-03-20T08:57:17.114Z,72.50
2019-03-20T08:59:44.577Z,72.90
2019-03-20T09:02:12.054Z,72.50
2019-03-20T09:04:39.440Z,72.30
2019-03-20T09:07:07.148Z,69.00
2019-03-20T09:09:35.310Z,70.90
2019-03-20T09:12:02.749Z,70.80
2019-03-20T09:14:30.173Z,71.10
2019-03-20T09:16:57.809Z,68.00
2019-03-20T09:19:25.213Z,67.10
2019-03-20T09:21:52.620Z,67.70
2019-03-20T09:24:20.293Z,64.30
2019-03-20T09:26:47.703Z,62.50
2019-03-20T09:29:18.781Z,62.70
2019-03-20T09:31:44.523Z,60.60
2019-03-20T09:34:11.917Z,61.10
2019-03-20T09:36:43.490Z,59.60
2019-03-20T09:39:10.337Z,61.20
2019-03-20T09:41:37.763Z,58.30
2019-03-20T09:44:05.175Z,60.60
2019-03-20T09:46:32.611Z,57.50
2019-03-20T09:49:00.009Z,48.80
2019-03-20T09:51:27.395Z,49.30
2019-03-20T09:53:54.839Z,43.00
2019-03-20T09:56:22.223Z,44.00
2019-03-20T09:58:49.622Z,42.80
2019-03-20T10:01:17.354Z,41.10
2019-03-20T10:03:44.742Z,44.60
2019-03-20T10:06:12.139Z,42.50
2019-03-20T10:08:40.870Z,42.50
2019-03-20T10:11:08.686Z,45.30
2019-03-20T10:13:36.221Z,43.80
2019-03-20T10:16:03.751Z,45.10
2019-03-20T10:18:31.207Z,45.40
2019-03-20T10:20:58.653Z,45.70
2019-03-20T10:23:26.107Z,47.00
2019-03-20T10:25:53.521Z,44.30
2019-03-20T10:28:20.910Z,44.60
2019-03-20T10:30:48.354Z,43.90
2019-03-20T10:33:16.689Z,45.40
2019-03-20T10:35:50.168Z,47.60
2019-03-20T10:38:13.402Z,46.00
2019-03-20T10:40:40.859Z,47.50
2019-03-20T10:43:08.257Z,44.30
2019-03-20T10:45:35.723Z,45.30
2019-03-20T10:48:03.137Z,43.80
2019-03-20T10:50:30.533Z,45.60
2019-03-20T10:52:58.157Z,43.60
2019-03-20T10:55:25.538Z,43.10
2019-03-20T10:57:52.955Z,41.40
2019-03-20T11:00:20.762Z,43.30
2019-03-20T11:02:48.158Z,43.60
2019-03-20T11:05:15.961Z,38.60
2019-03-20T11:07:43.363Z,38.10
2019-03-20T11:10:13.572Z,41.00
2019-03-20T11:12:40.996Z,42.80
2019-03-20T11:15:10.622Z,40.80
2019-03-20T11:17:38.039Z,38.50
2019-03-20T11:20:05.885Z,39.10
2019-03-20T11:22:33.337Z,37.70
2019-03-20T11:25:00.727Z,36.30
2019-03-20T11:27:28.123Z,36.00
2019-03-20T11:29:55.558Z,40.00
2019-03-20T11:32:22.975Z,38.40
2019-03-20T11:34:50.414Z,36.80
2019-03-20T11:37:17.847Z,40.60
2019-03-20T11:39:45.231Z,37.40
2019-03-20T11:42:12.620Z,37.30
2019-03-20T11:44:40.279Z,40.00
2019-03-20T11:47:07.695Z,38.60
2019-03-20T11:49:35.083Z,36.10
2019-03-20T11:52:02.502Z,36.30
2019-03-20T11:54:29.903Z,36.00
2019-03-20T11:56:57.292Z,37.20
2019-03-20T11:59:25.059Z,38.50
2019-03-20T12:01:52.460Z,38.90
2019-03-20T12:04:19.858Z,40.10
2019-03-20T12:06:47.309Z,38.90
2019-03-20T12:09:14.919Z,38.00
2019-03-20T12:11:46.011Z,37.50
2019-03-20T12:14:11.875Z,36.80
2019-03-20T12:16:39.282Z,38.50
2019-03-20T12:19:06.686Z,39.10
2019-03-20T12:21:34.144Z,36.90
2019-03-20T12:24:01.551Z,37.60
2019-03-20T12:26:28.966Z,36.70
2019-03-20T12:28:56.415Z,35.70
2019-03-20T12:31:23.843Z,34.70
2019-03-20T12:33:52.187Z,37.50
2019-03-20T12:36:19.734Z,36.50
2019-03-20T12:38:47.151Z,37.20
2019-03-20T12:41:14.604Z,36.80
2019-03-20T12:43:42.067Z,38.00
2019-03-20T12:46:09.455Z,37.30
2019-03-20T12:48:36.862Z,36.80
2019-03-20T12:51:04.300Z,38.30
2019-03-20T12:53:31.857Z,37.20
2019-03-20T12:55:59.252Z,35.70
2019-03-20T12:58:26.909Z,36.10
2019-03-20T13:00:54.632Z,35.70
2019-03-20T13:03:22.131Z,35.80
2019-03-20T13:05:49.586Z,36.60
2019-03-20T13:08:17.485Z,36.80
2019-03-20T13:10:45.295Z,36.90
2019-03-20T13:13:12.851Z,37.70
2019-03-20T13:15:40.374Z,37.80
2019-03-20T13:18:07.766Z,37.80
2019-03-20T13:20:35.245Z,37.60
2019-03-20T13:23:05.667Z,37.90
2019-03-20T13:25:33.052Z,37.10
2019-03-20T13:28:00.555Z,36.90
2019-03-20T13:30:31.204Z,38.00
2019-03-20T13:32:58.602Z,38.20
2019-03-20T13:35:26.323Z,38.40
2019-03-20T13:37:53.729Z,37.30
2019-03-20T13:40:21.135Z,37.70
2019-03-20T13:42:48.575Z,37.50
2019-03-20T13:45:16.291Z,36.00
2019-03-20T13:47:43.686Z,36.80
2019-03-20T13:50:12.603Z,38.30
2019-03-20T13:52:40.323Z,36.70
2019-03-20T13:55:08.294Z,35.40
2019-03-20T13:57:35.835Z,35.50
2019-03-20T14:00:06.027Z,34.30
2019-03-20T14:02:33.448Z,34.90
2019-03-20T14:05:00.894Z,36.30
2019-03-20T14:07:30.461Z,35.60
2019-03-20T14:09:57.925Z,34.90
2019-03-20T14:12:25.675Z,35.80
2019-03-20T14:14:53.079Z,35.50
2019-03-20T14:17:20.479Z,36.30
2019-03-20T14:19:47.927Z,37.80
2019-03-20T14:22:15.325Z,36.80
2019-03-20T14:24:42.720Z,37.90
2019-03-20T14:27:10.207Z,37.20
2019-03-20T14:29:39.606Z,37.90
2019-03-20T14:32:06.829Z,36.40
2019-03-20T14:34:34.261Z,35.60
2019-03-20T14:37:01.686Z,36.90
2019-03-20T14:39:29.129Z,37.10
2019-03-20T14:41:56.712Z,37.10
2019-03-20T14:44:24.118Z,37.40
2019-03-20T14:46:51.506Z,36.80
2019-03-20T14:49:19.198Z,34.80
2019-03-20T14:51:46.590Z,32.70
2019-03-20T14:54:14.037Z,34.60
2019-03-20T14:56:41.675Z,33.10
2019-03-20T14:59:09.099Z,34.30
2019-03-20T15:01:36.502Z,31.80
2019-03-20T15:04:04.062Z,32.40
2019-03-20T15:06:31.454Z,31.90
2019-03-20T15:08:59.005Z,30.00
2019-03-20T15:11:27.068Z,30.30
2019-03-20T15:13:54.484Z,30.50
2019-03-20T15:16:21.948Z,29.70
2019-03-20T15:18:49.355Z,30.90
2019-03-20T15:21:16.740Z,29.60
2019-03-20T15:23:44.150Z,30.30
2019-03-20T15:26:11.585Z,29.30
2019-03-20T15:28:38.975Z,29.30
2019-03-20T15:31:06.372Z,29.10
2019-03-20T15:33:33.840Z,29.80
2019-03-20T15:36:01.251Z,29.60
2019-03-20T15:38:28.651Z,29.90
2019-03-20T15:40:56.550Z,30.80
2019-03-20T15:43:24.103Z,33.20
2019-03-20T15:45:51.519Z,34.10
2019-03-20T15:48:18.980Z,35.10
2019-03-20T15:50:46.507Z,35.80
2019-03-20T15:53:13.898Z,36.80
2019-03-20T15:55:41.395Z,37.80
2019-03-20T15:58:08.791Z,42.30
2019-03-20T16:00:36.182Z,41.60
2019-03-20T16:03:09.372Z,41.00
2019-03-20T16:05:36.771Z,42.00
2019-03-20T16:08:04.179Z,44.20
2019-03-20T16:10:31.796Z,43.80
2019-03-20T16:12:59.491Z,44.70
2019-03-20T16:15:26.923Z,49.60
2019-03-20T16:17:54.382Z,48.30
2019-03-20T16:20:21.801Z,51.60
2019-03-20T16:22:49.294Z,48.60
2019-03-20T16:25:16.979Z,52.30
2019-03-20T16:27:44.387Z,50.20
2019-03-20T16:30:14.491Z,50.10
2019-03-20T16:32:42.124Z,49.70
2019-03-20T16:35:09.756Z,51.40
2019-03-20T16:37:37.165Z,51.00
2019-03-20T16:40:06.223Z,50.10
2019-03-20T16:42:33.614Z,49.70
2019-03-20T16:45:01.032Z,52.50
2019-03-20T16:47:28.566Z,51.60
2019-03-20T16:49:57.735Z,52.80
2019-03-20T16:52:25.155Z,53.90
2019-03-20T16:54:52.675Z,55.20
2019-03-20T16:57:21.798Z,52.40
2019-03-20T16:59:49.301Z,53.60
2019-03-20T17:02:17.951Z,54.40
2019-03-20T17:04:45.363Z,53.90
2019-03-20T17:07:12.767Z,54.00
2019-03-20T17:09:40.206Z,55.30
2019-03-20T17:12:08.437Z,54.50
2019-03-20T17:14:35.835Z,54.00
2019-03-20T17:17:03.933Z,53.30
2019-03-20T17:19:31.342Z,55.20
2019-03-20T17:21:58.755Z,55.00
2019-03-20T17:24:26.294Z,55.90
2019-03-20T17:26:53.711Z,55.00
2019-03-20T17:29:21.118Z,56.90
2019-03-20T17:31:48.622Z,59.10
2019-03-20T17:34:16.030Z,55.70
2019-03-20T17:36:43.504Z,57.00
2019-03-20T17:39:11.183Z,57.50
2019-03-20T17:41:38.584Z,57.80
2019-03-20T17:44:05.987Z,57.40
2019-03-20T17:46:33.438Z,58.40
2019-03-20T17:49:00.846Z,58.60
2019-03-20T17:51:28.243Z,59.80
2019-03-20T17:53:55.743Z,59.80
2019-03-20T17:56:23.142Z,58.70
2019-03-20T17:58:50.555Z,60.60
2019-03-20T18:01:18.182Z,60.50
2019-03-20T18:03:45.571Z,60.70
2019-03-20T18:06:13.003Z,61.20
2019-03-20T18:08:40.724Z,61.20
2019-03-20T18:11:08.308Z,62.00
2019-03-20T18:13:36.110Z,62.70
2019-03-20T18:16:03.862Z,62.90
2019-03-20T18:18:31.251Z,70.30
2019-03-20T18:20:58.710Z,66.10
2019-03-20T18:23:26.155Z,65.70
2019-03-20T18:25:53.645Z,66.20
2019-03-20T18:28:21.821Z,63.90
2019-03-20T18:30:49.548Z,65.90
2019-03-20T18:33:17.047Z,66.40
2019-03-20T18:35:44.435Z,64.90
2019-03-20T18:38:11.933Z,65.80
2019-03-20T18:40:39.412Z,66.20
2019-03-20T18:43:06.973Z,65.80
2019-03-20T18:45:34.673Z,66.20
2019-03-20T18:48:02.128Z,66.20
2019-03-20T18:50:29.518Z,67.70
2019-03-20T18:52:57.203Z,64.20
2019-03-20T18:55:24.619Z,67.20
2019-03-20T18:57:52.027Z,68.60
2019-03-20T19:00:21.643Z,66.90
2019-03-20T19:02:49.436Z,67.00
2019-03-20T19:05:34.423Z,69.30
2019-03-20T19:08:02.227Z,70.30
2019-03-20T19:10:29.912Z,69.60
2019-03-20T19:12:57.625Z,68.30
2019-03-20T19:15:25.028Z,68.90
2019-03-20T19:17:52.445Z,70.10
2019-03-20T19:20:20.045Z,70.50
2019-03-20T19:22:47.534Z,70.00
2019-03-20T19:25:15.139Z,73.20
2019-03-20T19:27:42.600Z,73.80
2019-03-20T19:30:13.622Z,71.10
2019-03-20T19:32:41.134Z,68.40
2019-03-20T19:35:08.881Z,71.40
2019-03-20T19:37:36.284Z,71.80
2019-03-20T19:40:04.286Z,72.00
2019-03-20T19:42:31.923Z,71.30
2019-03-20T19:44:59.355Z,70.90
2019-03-20T19:47:26.970Z,72.20
2019-03-20T19:49:54.469Z,75.00
2019-03-20T19:52:21.870Z,73.50
2019-03-20T19:54:49.370Z,73.90
2019-03-20T19:57:18.646Z,73.80
2019-03-20T19:59:46.077Z,73.50
2019-03-20T20:02:13.598Z,72.90
2019-03-20T20:04:41.124Z,72.20
2019-03-20T20:07:08.543Z,73.00
2019-03-20T20:09:35.944Z,72.10
2019-03-20T20:12:30.792Z,75.00
2019-03-20T20:14:52.582Z,73.50
2019-03-20T20:17:20.039Z,72.60
2019-03-20T20:19:47.627Z,71.40
2019-03-20T20:22:15.031Z,68.30
2019-03-20T20:24:42.523Z,72.40
2019-03-20T20:27:10.190Z,71.80
2019-03-20T20:29:37.595Z,72.60
2019-03-20T20:32:04.987Z,72.80
2019-03-20T20:34:32.427Z,72.90
2019-03-20T20:36:59.961Z,73.00
2019-03-20T20:39:27.291Z,73.00
2019-03-20T20:41:55.062Z,73.70
2019-03-20T20:44:22.646Z,71.80
2019-03-20T20:46:49.886Z,72.80
2019-03-20T20:49:17.365Z,72.90
2019-03-20T20:51:44.789Z,74.20
2019-03-20T20:54:12.371Z,75.30
2019-03-20T20:56:40.064Z,73.50
2019-03-20T20:59:07.424Z,74.30
2019-03-20T21:01:34.856Z,71.90
2019-03-20T21:04:02.555Z,75.80
2019-03-20T21:06:29.942Z,75.70
2019-03-20T21:08:57.367Z,99.90
2019-03-20T21:11:25.045Z,99.90
2019-03-20T21:13:52.947Z,75.80
2019-03-20T21:16:21.028Z,76.40
2019-03-20T21:19:26.335Z,75.70
2019-03-20T21:22:41.547Z,99.90
2019-03-20T21:25:09.758Z,74.70
2019-03-20T21:28:21.894Z,77.00
2019-03-20T21:31:58.902Z,76.50
2019-03-20T21:35:03.867Z,76.00
2019-03-20T21:38:00.870Z,77.40
2019-03-20T21:40:31.235Z,77.20
2019-03-20T21:43:35.317Z,77.80
2019-03-20T21:46:35.715Z,76.60
2019-03-20T21:49:05.659Z,75.30
2019-03-20T21:51:33.599Z,75.10
2019-03-20T21:54:41.211Z,71.90
2019-03-20T21:57:51.831Z,71.40
2019-03-20T22:01:15.174Z,73.40
2019-03-20T22:03:44.211Z,74.60
2019-03-20T22:06:49.527Z,76.70
2019-03-20T22:10:14.600Z,76.60
2019-03-20T22:12:51.785Z,76.00
2019-03-20T22:15:26.934Z,76.90
2019-03-20T22:18:52.102Z,77.90
2019-03-20T22:21:31.398Z,79.40
2019-03-20T22:24:52.597Z,77.70
2019-03-20T22:28:04.671Z,77.00
2019-03-20T22:30:32.770Z,76.00
2019-03-20T22:33:36.718Z,75.70
2019-03-20T22:36:18.382Z,75.70
2019-03-20T22:39:39.699Z,74.30
2019-03-20T22:42:15.905Z,77.50
2019-03-20T22:45:38.813Z,78.30
2019-03-20T22:48:46.944Z,77.60
2019-03-20T22:51:24.273Z,78.10
2019-03-20T22:54:45.596Z,78.60
2019-03-20T22:57:28.394Z,77.90
2019-03-20T22:59:56.499Z,76.90
2019-03-20T23:02:29.763Z,78.60
2019-03-20T23:04:58.806Z,78.30
2019-03-20T23:07:26.838Z,78.00
2019-03-20T23:09:54.879Z,94.00
2019-03-20T23:12:24.955Z,79.00
2019-03-20T23:14:53.278Z,77.30
2019-03-20T23:17:21.482Z,76.70
2019-03-20T23:19:50.855Z,77.10
2019-03-20T23:22:18.915Z,76.60
2019-03-20T23:24:47.143Z,77.50
2019-03-20T23:27:21.491Z,74.30
2019-03-20T23:29:49.527Z,75.40
2019-03-20T23:32:17.670Z,76.00
2019-03-20T23:34:45.650Z,76.30
2019-03-20T23:37:13.593Z,76.10
2019-03-20T23:39:41.526Z,76.50
2019-03-20T23:42:09.846Z,78.00
2019-03-20T23:44:37.791Z,76.60
2019-03-20T23:47:05.870Z,77.00
2019-03-20T23:49:34.051Z,77.50
2019-03-20T23:52:01.988Z,78.10
2019-03-20T23:54:42.403Z,79.10
2019-03-20T23:57:10.446Z,77.20
2019-03-20T23:59:38.488Z,76.90
